sensor_id;sensor_type;location;lat;lon;timestamp;P1;durP1;ratioP1;P2;durP2;ratioP2
61702;SDS011;47622;47.726;3.298;2023-07-29T00:00:41;1.02;;;0.90;;
61702;SDS011;47622;47.726;3.298;2023-07-29T00:03:07;1.67;;;1.10;;
61702;SDS011;47622;47.726;3.298;2023-07-29T00:05:33;1.23;;;0.80;;
61702;SDS011;47622;47.726;3.298;2023-07-29T00:07:59;4.72;;;1.10;;
61702;SDS011;47622;47.726;3.298;2023-07-29T00:10:25;2.80;;;0.90;;
61702;SDS011;47622;47.726;3.298;2023-07-29T00:12:51;2.50;;;0.80;;
61702;SDS011;47622;47.726;3.298;2023-07-29T00:15:16;2.35;;;0.80;;
61702;SDS011;47622;47.726;3.298;2023-07-29T00:17:42;2.05;;;0.80;;
61702;SDS011;47622;47.726;3.298;2023-07-29T00:20:08;1.83;;;0.90;;
61702;SDS011;47622;47.726;3.298;2023-07-29T00:22:33;4.18;;;1.00;;
61702;SDS011;47622;47.726;3.298;2023-07-29T00:24:59;1.20;;;1.00;;
61702;SDS011;47622;47.726;3.298;2023-07-29T00:27:24;3.47;;;0.90;;
61702;SDS011;47622;47.726;3.298;2023-07-29T00:29:51;2.05;;;0.90;;
61702;SDS011;47622;47.726;3.298;2023-07-29T00:32:17;1.00;;;0.90;;
61702;SDS011;47622;47.726;3.298;2023-07-29T00:34:43;1.20;;;0.90;;
61702;SDS011;47622;47.726;3.298;2023-07-29T00:37:09;1.73;;;0.90;;
61702;SDS011;47622;47.726;3.298;2023-07-29T00:39:35;2.05;;;1.10;;
61702;SDS011;47622;47.726;3.298;2023-07-29T00:42:02;1.50;;;0.98;;
61702;SDS011;47622;47.726;3.298;2023-07-29T00:44:28;1.20;;;1.10;;
61702;SDS011;47622;47.726;3.298;2023-07-29T00:46:56;2.95;;;0.90;;
61702;SDS011;47622;47.726;3.298;2023-07-29T00:49:23;3.83;;;1.00;;
61702;SDS011;47622;47.726;3.298;2023-07-29T00:51:49;1.77;;;0.90;;
61702;SDS011;47622;47.726;3.298;2023-07-29T00:54:14;1.08;;;0.98;;
61702;SDS011;47622;47.726;3.298;2023-07-29T00:56:40;2.17;;;0.98;;
61702;SDS011;47622;47.726;3.298;2023-07-29T00:59:06;1.48;;;0.90;;
61702;SDS011;47622;47.726;3.298;2023-07-29T01:01:31;2.95;;;1.02;;
61702;SDS011;47622;47.726;3.298;2023-07-29T01:03:57;8.80;;;1.30;;
61702;SDS011;47622;47.726;3.298;2023-07-29T01:09:25;1.00;;;1.00;;
61702;SDS011;47622;47.726;3.298;2023-07-29T01:12:22;1.58;;;1.00;;
61702;SDS011;47622;47.726;3.298;2023-07-29T01:17:31;2.40;;;1.20;;
61702;SDS011;47622;47.726;3.298;2023-07-29T01:22:34;1.30;;;1.20;;
61702;SDS011;47622;47.726;3.298;2023-07-29T01:25:00;2.70;;;1.00;;
61702;SDS011;47622;47.726;3.298;2023-07-29T01:27:26;1.20;;;1.10;;
61702;SDS011;47622;47.726;3.298;2023-07-29T01:29:52;1.55;;;1.10;;
61702;SDS011;47622;47.726;3.298;2023-07-29T01:32:24;2.15;;;1.40;;
61702;SDS011;47622;47.726;3.298;2023-07-29T01:34:53;2.65;;;1.20;;
61702;SDS011;47622;47.726;3.298;2023-07-29T01:37:26;3.38;;;1.52;;
61702;SDS011;47622;47.726;3.298;2023-07-29T01:39:56;2.35;;;1.17;;
61702;SDS011;47622;47.726;3.298;2023-07-29T01:42:24;1.30;;;1.20;;
61702;SDS011;47622;47.726;3.298;2023-07-29T01:44:51;2.42;;;1.08;;
61702;SDS011;47622;47.726;3.298;2023-07-29T01:47:17;1.20;;;1.10;;
61702;SDS011;47622;47.726;3.298;2023-07-29T01:49:42;1.80;;;1.50;;
61702;SDS011;47622;47.726;3.298;2023-07-29T01:52:08;1.63;;;1.20;;
61702;SDS011;47622;47.726;3.298;2023-07-29T01:54:33;2.28;;;1.08;;
61702;SDS011;47622;47.726;3.298;2023-07-29T01:56:59;0.90;;;0.90;;
61702;SDS011;47622;47.726;3.298;2023-07-29T01:59:24;1.92;;;1.20;;
61702;SDS011;47622;47.726;3.298;2023-07-29T02:01:50;1.73;;;1.02;;
61702;SDS011;47622;47.726;3.298;2023-07-29T02:04:15;0.85;;;0.85;;
61702;SDS011;47622;47.726;3.298;2023-07-29T02:06:41;2.28;;;1.20;;
61702;SDS011;47622;47.726;3.298;2023-07-29T02:09:07;1.40;;;1.08;;
61702;SDS011;47622;47.726;3.298;2023-07-29T02:11:32;1.40;;;1.30;;
61702;SDS011;47622;47.726;3.298;2023-07-29T02:13:58;1.20;;;1.10;;
61702;SDS011;47622;47.726;3.298;2023-07-29T02:16:24;2.88;;;1.00;;
61702;SDS011;47622;47.726;3.298;2023-07-29T02:18:49;3.28;;;1.05;;
61702;SDS011;47622;47.726;3.298;2023-07-29T02:21:15;1.17;;;1.10;;
61702;SDS011;47622;47.726;3.298;2023-07-29T02:23:41;2.10;;;1.20;;
61702;SDS011;47622;47.726;3.298;2023-07-29T02:26:07;3.58;;;1.23;;
61702;SDS011;47622;47.726;3.298;2023-07-29T02:28:33;1.10;;;1.00;;
61702;SDS011;47622;47.726;3.298;2023-07-29T02:31:15;1.20;;;1.10;;
61702;SDS011;47622;47.726;3.298;2023-07-29T02:33:42;3.15;;;1.25;;
61702;SDS011;47622;47.726;3.298;2023-07-29T02:36:09;1.88;;;1.00;;
61702;SDS011;47622;47.726;3.298;2023-07-29T02:38:34;3.58;;;1.10;;
61702;SDS011;47622;47.726;3.298;2023-07-29T02:41:00;1.20;;;1.08;;
61702;SDS011;47622;47.726;3.298;2023-07-29T02:43:25;1.38;;;1.08;;
61702;SDS011;47622;47.726;3.298;2023-07-29T02:45:51;2.70;;;1.40;;
61702;SDS011;47622;47.726;3.298;2023-07-29T02:48:16;5.80;;;1.23;;
61702;SDS011;47622;47.726;3.298;2023-07-29T02:50:42;1.90;;;1.00;;
61702;SDS011;47622;47.726;3.298;2023-07-29T02:53:08;1.27;;;1.10;;
61702;SDS011;47622;47.726;3.298;2023-07-29T02:55:33;2.00;;;1.00;;
61702;SDS011;47622;47.726;3.298;2023-07-29T02:57:59;0.80;;;0.80;;
61702;SDS011;47622;47.726;3.298;2023-07-29T03:00:24;1.58;;;1.10;;
61702;SDS011;47622;47.726;3.298;2023-07-29T03:02:50;1.73;;;1.10;;
61702;SDS011;47622;47.726;3.298;2023-07-29T03:05:16;1.48;;;1.10;;
61702;SDS011;47622;47.726;3.298;2023-07-29T03:07:41;1.63;;;1.20;;
61702;SDS011;47622;47.726;3.298;2023-07-29T03:10:07;1.83;;;1.17;;
61702;SDS011;47622;47.726;3.298;2023-07-29T03:12:36;1.08;;;0.98;;
61702;SDS011;47622;47.726;3.298;2023-07-29T03:15:01;1.90;;;1.17;;
61702;SDS011;47622;47.726;3.298;2023-07-29T03:17:27;2.17;;;1.20;;
61702;SDS011;47622;47.726;3.298;2023-07-29T03:19:53;1.15;;;1.00;;
61702;SDS011;47622;47.726;3.298;2023-07-29T03:22:18;4.43;;;1.27;;
61702;SDS011;47622;47.726;3.298;2023-07-29T03:24:44;1.88;;;1.17;;
61702;SDS011;47622;47.726;3.298;2023-07-29T03:27:11;1.73;;;1.20;;
61702;SDS011;47622;47.726;3.298;2023-07-29T03:29:40;3.53;;;1.10;;
61702;SDS011;47622;47.726;3.298;2023-07-29T03:32:05;1.15;;;1.10;;
61702;SDS011;47622;47.726;3.298;2023-07-29T03:34:31;1.50;;;1.30;;
61702;SDS011;47622;47.726;3.298;2023-07-29T03:36:59;1.98;;;1.17;;
61702;SDS011;47622;47.726;3.298;2023-07-29T03:39:25;1.98;;;1.20;;
61702;SDS011;47622;47.726;3.298;2023-07-29T03:41:51;1.98;;;1.20;;
61702;SDS011;47622;47.726;3.298;2023-07-29T03:44:17;4.28;;;1.58;;
61702;SDS011;47622;47.726;3.298;2023-07-29T03:46:44;3.13;;;1.08;;
61702;SDS011;47622;47.726;3.298;2023-07-29T03:49:10;2.40;;;1.25;;
61702;SDS011;47622;47.726;3.298;2023-07-29T03:51:36;1.40;;;1.20;;
61702;SDS011;47622;47.726;3.298;2023-07-29T03:54:02;1.42;;;1.20;;
61702;SDS011;47622;47.726;3.298;2023-07-29T03:56:27;2.13;;;1.10;;
61702;SDS011;47622;47.726;3.298;2023-07-29T03:58:53;2.90;;;1.25;;
61702;SDS011;47622;47.726;3.298;2023-07-29T04:01:19;2.60;;;1.23;;
61702;SDS011;47622;47.726;3.298;2023-07-29T04:03:45;1.75;;;1.35;;
61702;SDS011;47622;47.726;3.298;2023-07-29T04:06:13;2.58;;;1.17;;
61702;SDS011;47622;47.726;3.298;2023-07-29T04:08:39;2.67;;;1.30;;
61702;SDS011;47622;47.726;3.298;2023-07-29T04:11:06;2.03;;;1.20;;
61702;SDS011;47622;47.726;3.298;2023-07-29T04:13:31;3.55;;;1.27;;
61702;SDS011;47622;47.726;3.298;2023-07-29T04:15:57;1.98;;;1.20;;
61702;SDS011;47622;47.726;3.298;2023-07-29T04:18:22;2.22;;;1.40;;
61702;SDS011;47622;47.726;3.298;2023-07-29T04:20:48;1.77;;;1.50;;
61702;SDS011;47622;47.726;3.298;2023-07-29T04:23:13;1.45;;;1.30;;
61702;SDS011;47622;47.726;3.298;2023-07-29T04:25:39;1.75;;;1.20;;
61702;SDS011;47622;47.726;3.298;2023-07-29T04:28:05;1.88;;;1.20;;
61702;SDS011;47622;47.726;3.298;2023-07-29T04:30:30;4.30;;;1.60;;
61702;SDS011;47622;47.726;3.298;2023-07-29T04:32:56;5.40;;;1.60;;
61702;SDS011;47622;47.726;3.298;2023-07-29T04:35:21;2.90;;;1.50;;
61702;SDS011;47622;47.726;3.298;2023-07-29T04:37:48;1.63;;;1.42;;
61702;SDS011;47622;47.726;3.298;2023-07-29T04:40:14;3.50;;;1.58;;
61702;SDS011;47622;47.726;3.298;2023-07-29T04:42:40;2.70;;;1.45;;
61702;SDS011;47622;47.726;3.298;2023-07-29T04:45:06;2.95;;;1.50;;
61702;SDS011;47622;47.726;3.298;2023-07-29T04:47:31;2.00;;;1.52;;
61702;SDS011;47622;47.726;3.298;2023-07-29T04:49:57;1.60;;;1.23;;
61702;SDS011;47622;47.726;3.298;2023-07-29T04:52:23;3.40;;;1.52;;
61702;SDS011;47622;47.726;3.298;2023-07-29T04:54:48;4.75;;;2.05;;
61702;SDS011;47622;47.726;3.298;2023-07-29T04:57:14;4.38;;;1.63;;
61702;SDS011;47622;47.726;3.298;2023-07-29T04:59:39;3.63;;;1.83;;
61702;SDS011;47622;47.726;3.298;2023-07-29T05:02:05;3.53;;;1.63;;
61702;SDS011;47622;47.726;3.298;2023-07-29T05:04:30;2.78;;;1.40;;
61702;SDS011;47622;47.726;3.298;2023-07-29T05:06:56;3.05;;;1.48;;
61702;SDS011;47622;47.726;3.298;2023-07-29T05:09:23;1.95;;;1.70;;
61702;SDS011;47622;47.726;3.298;2023-07-29T05:11:49;2.95;;;1.50;;
61702;SDS011;47622;47.726;3.298;2023-07-29T05:14:15;3.60;;;1.48;;
61702;SDS011;47622;47.726;3.298;2023-07-29T05:16:41;3.70;;;1.80;;
61702;SDS011;47622;47.726;3.298;2023-07-29T05:19:07;3.08;;;1.75;;
61702;SDS011;47622;47.726;3.298;2023-07-29T05:21:33;4.00;;;1.58;;
61702;SDS011;47622;47.726;3.298;2023-07-29T05:23:58;4.03;;;1.48;;
61702;SDS011;47622;47.726;3.298;2023-07-29T05:26:24;1.65;;;1.30;;
61702;SDS011;47622;47.726;3.298;2023-07-29T05:28:50;2.42;;;1.63;;
61702;SDS011;47622;47.726;3.298;2023-07-29T05:31:16;3.97;;;1.77;;
61702;SDS011;47622;47.726;3.298;2023-07-29T05:33:41;5.32;;;1.77;;
61702;SDS011;47622;47.726;3.298;2023-07-29T05:36:07;6.40;;;1.60;;
61702;SDS011;47622;47.726;3.298;2023-07-29T05:38:32;2.50;;;1.55;;
61702;SDS011;47622;47.726;3.298;2023-07-29T05:40:58;3.13;;;1.60;;
61702;SDS011;47622;47.726;3.298;2023-07-29T05:43:24;3.17;;;1.40;;
61702;SDS011;47622;47.726;3.298;2023-07-29T05:45:50;2.95;;;1.73;;
61702;SDS011;47622;47.726;3.298;2023-07-29T05:48:16;1.98;;;1.38;;
61702;SDS011;47622;47.726;3.298;2023-07-29T05:50:42;2.05;;;1.40;;
61702;SDS011;47622;47.726;3.298;2023-07-29T05:53:07;1.60;;;1.50;;
61702;SDS011;47622;47.726;3.298;2023-07-29T05:55:33;1.95;;;1.30;;
61702;SDS011;47622;47.726;3.298;2023-07-29T05:57:58;1.77;;;1.60;;
61702;SDS011;47622;47.726;3.298;2023-07-29T06:00:25;2.65;;;1.80;;
61702;SDS011;47622;47.726;3.298;2023-07-29T06:02:51;4.22;;;1.75;;
61702;SDS011;47622;47.726;3.298;2023-07-29T06:05:16;2.60;;;1.60;;
61702;SDS011;47622;47.726;3.298;2023-07-29T06:07:42;2.58;;;1.42;;
61702;SDS011;47622;47.726;3.298;2023-07-29T06:10:13;1.90;;;1.50;;
61702;SDS011;47622;47.726;3.298;2023-07-29T06:12:42;2.60;;;1.50;;
61702;SDS011;47622;47.726;3.298;2023-07-29T06:15:08;3.05;;;1.73;;
61702;SDS011;47622;47.726;3.298;2023-07-29T06:17:34;3.65;;;1.50;;
61702;SDS011;47622;47.726;3.298;2023-07-29T06:20:00;3.92;;;1.60;;
61702;SDS011;47622;47.726;3.298;2023-07-29T06:22:25;4.07;;;1.50;;
61702;SDS011;47622;47.726;3.298;2023-07-29T06:24:51;3.65;;;1.50;;
61702;SDS011;47622;47.726;3.298;2023-07-29T06:27:16;2.75;;;1.50;;
61702;SDS011;47622;47.726;3.298;2023-07-29T06:29:42;3.17;;;1.50;;
61702;SDS011;47622;47.726;3.298;2023-07-29T06:32:07;3.20;;;1.40;;
61702;SDS011;47622;47.726;3.298;2023-07-29T06:34:33;4.78;;;1.67;;
61702;SDS011;47622;47.726;3.298;2023-07-29T06:36:59;4.55;;;1.50;;
61702;SDS011;47622;47.726;3.298;2023-07-29T06:39:24;3.60;;;1.67;;
61702;SDS011;47622;47.726;3.298;2023-07-29T06:41:50;2.58;;;1.50;;
61702;SDS011;47622;47.726;3.298;2023-07-29T06:44:15;1.83;;;1.40;;
61702;SDS011;47622;47.726;3.298;2023-07-29T06:46:41;5.57;;;1.88;;
61702;SDS011;47622;47.726;3.298;2023-07-29T06:49:07;3.22;;;1.50;;
61702;SDS011;47622;47.726;3.298;2023-07-29T06:51:32;6.10;;;1.50;;
61702;SDS011;47622;47.726;3.298;2023-07-29T06:54:00;3.10;;;1.60;;
61702;SDS011;47622;47.726;3.298;2023-07-29T06:56:26;6.82;;;1.67;;
61702;SDS011;47622;47.726;3.298;2023-07-29T06:58:52;4.03;;;1.70;;
61702;SDS011;47622;47.726;3.298;2023-07-29T07:01:18;2.35;;;1.58;;
61702;SDS011;47622;47.726;3.298;2023-07-29T07:03:43;2.13;;;1.30;;
61702;SDS011;47622;47.726;3.298;2023-07-29T07:06:10;2.63;;;1.58;;
61702;SDS011;47622;47.726;3.298;2023-07-29T07:08:36;2.45;;;1.50;;
61702;SDS011;47622;47.726;3.298;2023-07-29T07:11:01;2.95;;;1.60;;
61702;SDS011;47622;47.726;3.298;2023-07-29T07:13:27;3.22;;;1.50;;
61702;SDS011;47622;47.726;3.298;2023-07-29T07:15:55;2.85;;;1.48;;
61702;SDS011;47622;47.726;3.298;2023-07-29T07:18:21;2.22;;;1.30;;
61702;SDS011;47622;47.726;3.298;2023-07-29T07:20:51;2.42;;;1.38;;
61702;SDS011;47622;47.726;3.298;2023-07-29T07:23:17;1.40;;;1.30;;
61702;SDS011;47622;47.726;3.298;2023-07-29T07:25:43;3.65;;;1.40;;
61702;SDS011;47622;47.726;3.298;2023-07-29T07:28:09;1.85;;;1.30;;
61702;SDS011;47622;47.726;3.298;2023-07-29T07:30:35;2.95;;;1.65;;
61702;SDS011;47622;47.726;3.298;2023-07-29T07:33:04;2.75;;;1.50;;
61702;SDS011;47622;47.726;3.298;2023-07-29T07:35:29;2.75;;;1.55;;
61702;SDS011;47622;47.726;3.298;2023-07-29T07:37:55;4.05;;;1.50;;
61702;SDS011;47622;47.726;3.298;2023-07-29T07:40:21;2.00;;;1.38;;
61702;SDS011;47622;47.726;3.298;2023-07-29T07:42:47;4.25;;;1.67;;
61702;SDS011;47622;47.726;3.298;2023-07-29T07:45:13;3.67;;;1.50;;
61702;SDS011;47622;47.726;3.298;2023-07-29T07:47:38;2.80;;;1.33;;
61702;SDS011;47622;47.726;3.298;2023-07-29T07:50:04;2.83;;;1.30;;
61702;SDS011;47622;47.726;3.298;2023-07-29T07:52:30;2.92;;;1.60;;
61702;SDS011;47622;47.726;3.298;2023-07-29T07:54:56;2.10;;;1.50;;
61702;SDS011;47622;47.726;3.298;2023-07-29T07:57:21;2.60;;;1.45;;
61702;SDS011;47622;47.726;3.298;2023-07-29T07:59:47;1.77;;;1.40;;
61702;SDS011;47622;47.726;3.298;2023-07-29T08:02:13;3.83;;;1.60;;
61702;SDS011;47622;47.726;3.298;2023-07-29T08:04:38;4.50;;;1.48;;
61702;SDS011;47622;47.726;3.298;2023-07-29T08:07:04;2.13;;;1.33;;
61702;SDS011;47622;47.726;3.298;2023-07-29T08:09:30;2.85;;;1.40;;
61702;SDS011;47622;47.726;3.298;2023-07-29T08:11:55;1.40;;;1.00;;
61702;SDS011;47622;47.726;3.298;2023-07-29T08:14:21;1.33;;;1.10;;
61702;SDS011;47622;47.726;3.298;2023-07-29T08:16:47;3.00;;;1.40;;
61702;SDS011;47622;47.726;3.298;2023-07-29T08:19:13;3.92;;;1.40;;
61702;SDS011;47622;47.726;3.298;2023-07-29T08:21:38;1.60;;;1.20;;
61702;SDS011;47622;47.726;3.298;2023-07-29T08:24:04;1.95;;;1.20;;
61702;SDS011;47622;47.726;3.298;2023-07-29T08:26:31;2.65;;;1.48;;
61702;SDS011;47622;47.726;3.298;2023-07-29T08:28:57;2.20;;;1.30;;
61702;SDS011;47622;47.726;3.298;2023-07-29T08:31:23;3.58;;;1.40;;
61702;SDS011;47622;47.726;3.298;2023-07-29T08:33:48;3.33;;;1.60;;
61702;SDS011;47622;47.726;3.298;2023-07-29T08:36:14;2.55;;;1.30;;
61702;SDS011;47622;47.726;3.298;2023-07-29T08:38:39;2.92;;;1.58;;
61702;SDS011;47622;47.726;3.298;2023-07-29T08:44:02;2.47;;;1.30;;
61702;SDS011;47622;47.726;3.298;2023-07-29T08:46:34;1.52;;;1.27;;
61702;SDS011;47622;47.726;3.298;2023-07-29T08:49:02;1.30;;;1.13;;
61702;SDS011;47622;47.726;3.298;2023-07-29T08:51:28;3.58;;;1.73;;
61702;SDS011;47622;47.726;3.298;2023-07-29T08:53:56;3.22;;;1.40;;
61702;SDS011;47622;47.726;3.298;2023-07-29T08:56:21;1.83;;;1.13;;
61702;SDS011;47622;47.726;3.298;2023-07-29T08:58:47;3.55;;;1.30;;
61702;SDS011;47622;47.726;3.298;2023-07-29T09:01:14;2.35;;;1.25;;
61702;SDS011;47622;47.726;3.298;2023-07-29T09:03:40;1.88;;;1.27;;
61702;SDS011;47622;47.726;3.298;2023-07-29T09:06:06;1.83;;;1.17;;
61702;SDS011;47622;47.726;3.298;2023-07-29T09:08:33;1.45;;;1.20;;
61702;SDS011;47622;47.726;3.298;2023-07-29T09:10:59;3.67;;;1.63;;
61702;SDS011;47622;47.726;3.298;2023-07-29T09:13:26;1.70;;;1.25;;
61702;SDS011;47622;47.726;3.298;2023-07-29T09:15:55;2.38;;;1.40;;
61702;SDS011;47622;47.726;3.298;2023-07-29T09:18:22;4.80;;;1.40;;
61702;SDS011;47622;47.726;3.298;2023-07-29T09:20:49;1.70;;;1.20;;
61702;SDS011;47622;47.726;3.298;2023-07-29T09:23:15;2.97;;;1.30;;
61702;SDS011;47622;47.726;3.298;2023-07-29T09:25:42;1.55;;;1.13;;
61702;SDS011;47622;47.726;3.298;2023-07-29T09:28:14;1.33;;;1.23;;
61702;SDS011;47622;47.726;3.298;2023-07-29T09:30:41;2.55;;;1.20;;
61702;SDS011;47622;47.726;3.298;2023-07-29T09:33:08;1.45;;;1.10;;
61702;SDS011;47622;47.726;3.298;2023-07-29T09:35:35;1.85;;;1.10;;
61702;SDS011;47622;47.726;3.298;2023-07-29T09:38:03;1.27;;;1.00;;
61702;SDS011;47622;47.726;3.298;2023-07-29T09:40:39;1.67;;;1.10;;
61702;SDS011;47622;47.726;3.298;2023-07-29T09:43:06;2.90;;;1.20;;
61702;SDS011;47622;47.726;3.298;2023-07-29T09:45:36;1.23;;;1.13;;
61702;SDS011;47622;47.726;3.298;2023-07-29T09:48:03;3.10;;;1.17;;
61702;SDS011;47622;47.726;3.298;2023-07-29T09:53:02;1.58;;;1.13;;
61702;SDS011;47622;47.726;3.298;2023-07-29T09:55:28;2.05;;;1.15;;
61702;SDS011;47622;47.726;3.298;2023-07-29T09:57:58;5.97;;;1.33;;
61702;SDS011;47622;47.726;3.298;2023-07-29T10:00:30;2.63;;;1.20;;
61702;SDS011;47622;47.726;3.298;2023-07-29T10:02:57;6.35;;;1.50;;
61702;SDS011;47622;47.726;3.298;2023-07-29T10:05:25;1.63;;;1.02;;
61702;SDS011;47622;47.726;3.298;2023-07-29T10:07:52;1.67;;;1.10;;
61702;SDS011;47622;47.726;3.298;2023-07-29T10:10:19;1.95;;;1.13;;
61702;SDS011;47622;47.726;3.298;2023-07-29T10:12:45;2.20;;;1.30;;
61702;SDS011;47622;47.726;3.298;2023-07-29T10:15:11;1.10;;;1.00;;
61702;SDS011;47622;47.726;3.298;2023-07-29T10:17:37;1.30;;;1.13;;
61702;SDS011;47622;47.726;3.298;2023-07-29T10:20:04;1.50;;;1.00;;
61702;SDS011;47622;47.726;3.298;2023-07-29T10:22:42;1.15;;;1.00;;
61702;SDS011;47622;47.726;3.298;2023-07-29T10:25:18;2.25;;;1.20;;
61702;SDS011;47622;47.726;3.298;2023-07-29T10:27:54;1.17;;;1.05;;
61702;SDS011;47622;47.726;3.298;2023-07-29T10:30:22;3.15;;;1.10;;
61702;SDS011;47622;47.726;3.298;2023-07-29T10:32:49;1.27;;;0.98;;
61702;SDS011;47622;47.726;3.298;2023-07-29T10:35:16;1.30;;;1.02;;
61702;SDS011;47622;47.726;3.298;2023-07-29T10:37:42;1.98;;;0.90;;
61702;SDS011;47622;47.726;3.298;2023-07-29T10:40:09;3.70;;;1.48;;
61702;SDS011;47622;47.726;3.298;2023-07-29T10:42:36;1.10;;;1.00;;
61702;SDS011;47622;47.726;3.298;2023-07-29T10:46:15;1.48;;;1.17;;
61702;SDS011;47622;47.726;3.298;2023-07-29T10:48:39;1.50;;;1.20;;
61702;SDS011;47622;47.726;3.298;2023-07-29T10:54:13;1.30;;;1.15;;
61702;SDS011;47622;47.726;3.298;2023-07-29T10:56:46;4.15;;;1.23;;
61702;SDS011;47622;47.726;3.298;2023-07-29T11:01:38;2.22;;;1.67;;
61702;SDS011;47622;47.726;3.298;2023-07-29T11:15:02;1.90;;;1.70;;
61702;SDS011;47622;47.726;3.298;2023-07-29T11:17:34;2.10;;;1.50;;
61702;SDS011;47622;47.726;3.298;2023-07-29T11:20:01;1.42;;;1.13;;
61702;SDS011;47622;47.726;3.298;2023-07-29T11:22:28;2.90;;;1.42;;
61702;SDS011;47622;47.726;3.298;2023-07-29T11:24:54;2.05;;;1.40;;
61702;SDS011;47622;47.726;3.298;2023-07-29T11:27:20;2.63;;;1.10;;
61702;SDS011;47622;47.726;3.298;2023-07-29T11:29:46;2.22;;;1.25;;
61702;SDS011;47622;47.726;3.298;2023-07-29T11:32:12;2.63;;;1.30;;
61702;SDS011;47622;47.726;3.298;2023-07-29T11:34:38;1.98;;;1.65;;
61702;SDS011;47622;47.726;3.298;2023-07-29T11:37:05;1.70;;;1.45;;
61702;SDS011;47622;47.726;3.298;2023-07-29T11:39:39;1.58;;;1.42;;
61702;SDS011;47622;47.726;3.298;2023-07-29T11:42:12;4.95;;;1.40;;
61702;SDS011;47622;47.726;3.298;2023-07-29T11:44:38;2.08;;;1.40;;
61702;SDS011;47622;47.726;3.298;2023-07-29T11:47:08;1.95;;;1.30;;
61702;SDS011;47622;47.726;3.298;2023-07-29T11:49:34;2.67;;;1.50;;
61702;SDS011;47622;47.726;3.298;2023-07-29T11:52:01;2.20;;;1.40;;
61702;SDS011;47622;47.726;3.298;2023-07-29T11:54:28;2.58;;;1.40;;
61702;SDS011;47622;47.726;3.298;2023-07-29T11:56:55;1.58;;;1.48;;
61702;SDS011;47622;47.726;3.298;2023-07-29T11:59:20;2.28;;;1.40;;
61702;SDS011;47622;47.726;3.298;2023-07-29T12:01:46;2.08;;;1.50;;
61702;SDS011;47622;47.726;3.298;2023-07-29T12:04:12;1.77;;;1.40;;
61702;SDS011;47622;47.726;3.298;2023-07-29T12:06:39;1.55;;;1.30;;
61702;SDS011;47622;47.726;3.298;2023-07-29T12:09:06;2.67;;;1.30;;
61702;SDS011;47622;47.726;3.298;2023-07-29T12:11:32;1.33;;;1.20;;
61702;SDS011;47622;47.726;3.298;2023-07-29T12:14:01;3.38;;;1.30;;
61702;SDS011;47622;47.726;3.298;2023-07-29T12:16:27;2.25;;;1.30;;
61702;SDS011;47622;47.726;3.298;2023-07-29T12:19:00;2.00;;;1.20;;
61702;SDS011;47622;47.726;3.298;2023-07-29T12:21:26;1.88;;;1.38;;
61702;SDS011;47622;47.726;3.298;2023-07-29T12:23:51;1.92;;;1.48;;
61702;SDS011;47622;47.726;3.298;2023-07-29T12:26:17;1.33;;;1.10;;
61702;SDS011;47622;47.726;3.298;2023-07-29T12:28:46;1.65;;;1.40;;
61702;SDS011;47622;47.726;3.298;2023-07-29T12:31:12;3.25;;;1.70;;
61702;SDS011;47622;47.726;3.298;2023-07-29T12:33:38;4.72;;;1.90;;
61702;SDS011;47622;47.726;3.298;2023-07-29T12:36:04;5.35;;;1.38;;
61702;SDS011;47622;47.726;3.298;2023-07-29T12:38:30;2.38;;;1.40;;
61702;SDS011;47622;47.726;3.298;2023-07-29T12:40:56;3.22;;;1.58;;
61702;SDS011;47622;47.726;3.298;2023-07-29T12:43:21;3.05;;;1.70;;
61702;SDS011;47622;47.726;3.298;2023-07-29T12:45:50;3.70;;;1.80;;
61702;SDS011;47622;47.726;3.298;2023-07-29T12:48:16;2.90;;;1.70;;
61702;SDS011;47622;47.726;3.298;2023-07-29T12:50:42;2.60;;;1.60;;
61702;SDS011;47622;47.726;3.298;2023-07-29T12:53:08;2.35;;;1.70;;
61702;SDS011;47622;47.726;3.298;2023-07-29T12:55:37;1.88;;;1.45;;
61702;SDS011;47622;47.726;3.298;2023-07-29T12:58:04;2.40;;;1.48;;
61702;SDS011;47622;47.726;3.298;2023-07-29T13:00:30;2.60;;;1.52;;
61702;SDS011;47622;47.726;3.298;2023-07-29T13:02:55;3.08;;;1.40;;
61702;SDS011;47622;47.726;3.298;2023-07-29T13:05:21;4.05;;;1.55;;
61702;SDS011;47622;47.726;3.298;2023-07-29T13:07:47;2.33;;;1.42;;
61702;SDS011;47622;47.726;3.298;2023-07-29T13:10:13;3.45;;;1.40;;
61702;SDS011;47622;47.726;3.298;2023-07-29T13:12:39;3.10;;;1.58;;
61702;SDS011;47622;47.726;3.298;2023-07-29T13:15:05;3.97;;;1.70;;
61702;SDS011;47622;47.726;3.298;2023-07-29T13:17:34;3.42;;;1.70;;
61702;SDS011;47622;47.726;3.298;2023-07-29T13:20:00;1.88;;;1.65;;
61702;SDS011;47622;47.726;3.298;2023-07-29T13:22:26;2.17;;;1.70;;
61702;SDS011;47622;47.726;3.298;2023-07-29T13:24:51;2.47;;;1.40;;
61702;SDS011;47622;47.726;3.298;2023-07-29T13:27:17;3.33;;;1.88;;
61702;SDS011;47622;47.726;3.298;2023-07-29T13:29:42;2.60;;;1.60;;
61702;SDS011;47622;47.726;3.298;2023-07-29T13:32:08;4.85;;;2.20;;
61702;SDS011;47622;47.726;3.298;2023-07-29T13:34:34;2.90;;;1.80;;
61702;SDS011;47622;47.726;3.298;2023-07-29T13:37:00;3.08;;;1.50;;
61702;SDS011;47622;47.726;3.298;2023-07-29T13:39:25;3.08;;;1.77;;
61702;SDS011;47622;47.726;3.298;2023-07-29T13:41:52;2.10;;;1.90;;
61702;SDS011;47622;47.726;3.298;2023-07-29T13:44:18;3.08;;;1.88;;
61702;SDS011;47622;47.726;3.298;2023-07-29T13:46:43;2.78;;;1.80;;
61702;SDS011;47622;47.726;3.298;2023-07-29T13:49:09;2.65;;;1.90;;
61702;SDS011;47622;47.726;3.298;2023-07-29T13:51:35;2.45;;;2.03;;
61702;SDS011;47622;47.726;3.298;2023-07-29T13:54:02;5.82;;;2.03;;
61702;SDS011;47622;47.726;3.298;2023-07-29T13:56:28;2.88;;;1.95;;
61702;SDS011;47622;47.726;3.298;2023-07-29T13:58:53;3.85;;;2.35;;
61702;SDS011;47622;47.726;3.298;2023-07-29T14:01:19;5.00;;;2.53;;
61702;SDS011;47622;47.726;3.298;2023-07-29T14:03:44;3.53;;;2.35;;
61702;SDS011;47622;47.726;3.298;2023-07-29T14:06:10;5.32;;;2.30;;
61702;SDS011;47622;47.726;3.298;2023-07-29T14:08:36;8.50;;;2.60;;
61702;SDS011;47622;47.726;3.298;2023-07-29T14:11:03;6.15;;;2.45;;
61702;SDS011;47622;47.726;3.298;2023-07-29T14:13:29;3.33;;;2.50;;
61702;SDS011;47622;47.726;3.298;2023-07-29T14:15:54;2.50;;;2.10;;
61702;SDS011;47622;47.726;3.298;2023-07-29T14:18:20;3.78;;;2.53;;
61702;SDS011;47622;47.726;3.298;2023-07-29T14:20:45;4.05;;;2.30;;
61702;SDS011;47622;47.726;3.298;2023-07-29T14:23:11;4.78;;;2.47;;
61702;SDS011;47622;47.726;3.298;2023-07-29T14:25:37;3.65;;;2.70;;
61702;SDS011;47622;47.726;3.298;2023-07-29T14:28:02;5.70;;;2.83;;
61702;SDS011;47622;47.726;3.298;2023-07-29T14:30:28;8.00;;;2.70;;
61702;SDS011;47622;47.726;3.298;2023-07-29T14:32:53;6.60;;;3.65;;
61702;SDS011;47622;47.726;3.298;2023-07-29T14:35:19;4.72;;;2.83;;
61702;SDS011;47622;47.726;3.298;2023-07-29T14:37:44;9.73;;;3.38;;
61702;SDS011;47622;47.726;3.298;2023-07-29T14:40:10;4.88;;;2.88;;
61702;SDS011;47622;47.726;3.298;2023-07-29T14:42:36;3.83;;;2.83;;
61702;SDS011;47622;47.726;3.298;2023-07-29T14:45:01;3.33;;;2.58;;
61702;SDS011;47622;47.726;3.298;2023-07-29T14:47:28;3.65;;;2.65;;
61702;SDS011;47622;47.726;3.298;2023-07-29T14:49:53;4.03;;;2.33;;
61702;SDS011;47622;47.726;3.298;2023-07-29T14:52:19;4.35;;;2.30;;
61702;SDS011;47622;47.726;3.298;2023-07-29T14:54:44;5.25;;;2.60;;
61702;SDS011;47622;47.726;3.298;2023-07-29T14:57:10;3.65;;;2.45;;
61702;SDS011;47622;47.726;3.298;2023-07-29T14:59:36;5.28;;;2.70;;
61702;SDS011;47622;47.726;3.298;2023-07-29T15:02:02;5.53;;;2.65;;
61702;SDS011;47622;47.726;3.298;2023-07-29T15:04:27;4.47;;;2.40;;
61702;SDS011;47622;47.726;3.298;2023-07-29T15:06:53;5.10;;;2.30;;
61702;SDS011;47622;47.726;3.298;2023-07-29T15:09:18;3.35;;;2.80;;
61702;SDS011;47622;47.726;3.298;2023-07-29T15:11:44;4.75;;;2.25;;
61702;SDS011;47622;47.726;3.298;2023-07-29T15:14:09;2.90;;;2.30;;